Time;durP1;ratioP1;P1;durP2;ratioP2;P2;SDS_P1;SDS_P2;PMS_P1;PMS_P2;Temp;Humidity;BMP_temperature;BMP_pressure;BME280_temperature;BME280_humidity;BME280_pressure;Samples;Min_cycle;Max_cycle;Signal;HPM_P1;HPM_P2
2022/05/16 00:02:21;;;;;;;11.77;9.70;;;;;;;21.71;44.21;95453.84;4971092;28;20438;-71
2022/05/16 00:04:49;;;;;;;14.33;8.33;;;;;;;21.31;45.63;95457.66;4970918;28;20490;-73
2022/05/16 00:07:19;;;;;;;13.30;9.03;;;;;;;21.60;44.62;95445.34;4969733;28;20522;-73
2022/05/16 00:09:46;;;;;;;10.07;9.07;;;;;;;21.70;44.42;95447.69;4970611;28;20447;-73
2022/05/16 00:12:14;;;;;;;9.20;8.30;;;;;;;21.47;45.07;95448.91;4970960;28;20529;-73
2022/05/16 00:14:42;;;;;;;11.80;8.57;;;;;;;21.40;45.03;95442.47;4970649;28;20969;-72
2022/05/16 00:17:09;;;;;;;11.13;9.10;;;;;;;21.69;44.24;95440.00;4970624;28;20423;-74
2022/05/16 00:19:36;;;;;;;10.97;9.87;;;;;;;21.70;44.55;95453.03;4970577;28;21064;-71
2022/05/16 00:22:03;;;;;;;9.87;8.90;;;;;;;21.51;44.31;95449.09;4953292;28;20856;-72
2022/05/16 00:24:31;;;;;;;9.53;8.63;;;;;;;21.43;44.74;95452.50;4969813;28;20474;-71
2022/05/16 00:27:01;;;;;;;9.77;8.77;;;;;;;21.40;44.75;95445.13;4970556;28;20442;-71
2022/05/16 00:29:28;;;;;;;10.43;9.40;;;;;;;20.10;47.57;95444.69;4970493;28;20970;-69
2022/05/16 00:31:55;;;;;;;12.43;9.60;;;;;;;19.30;49.71;95443.75;4970884;28;20508;-73
2022/05/16 00:34:24;;;;;;;14.63;9.87;;;;;;;18.91;50.95;95442.34;4970911;28;20479;-71
2022/05/16 00:36:51;;;;;;;14.73;10.13;;;;;;;18.46;52.11;95423.78;4970555;28;20540;-71
2022/05/16 00:39:21;;;;;;;12.23;9.97;;;;;;;19.73;49.57;95447.63;4970226;28;20465;-71
2022/05/16 00:41:50;;;;;;;12.80;10.83;;;;;;;20.41;47.82;95448.22;4970908;28;20454;-72
2022/05/16 00:44:18;;;;;;;15.27;10.13;;;;;;;20.61;47.07;95450.41;4970216;28;20577;-68
2022/05/16 00:46:47;;;;;;;11.87;9.50;;;;;;;20.48;47.00;95453.91;4970468;28;20837;-70
2022/05/16 00:49:24;;;;;;;12.00;10.40;;;;;;;20.48;47.31;95447.78;4970254;28;20825;-71
2022/05/16 00:51:59;;;;;;;14.93;11.00;;;;;;;20.45;47.27;95448.41;4970335;28;20441;-70
2022/05/16 00:54:34;;;;;;;10.60;9.43;;;;;;;20.57;46.57;95441.44;4970471;28;20512;-70
2022/05/16 00:57:09;;;;;;;10.63;9.20;;;;;;;20.80;46.27;95440.31;4970153;28;20480;-71
2022/05/16 00:59:58;;;;;;;11.43;9.30;;;;;;;20.70;46.18;95448.56;4970518;28;20442;-70
2022/05/16 01:05:13;;;;;;;11.10;8.77;;;;;;;20.89;45.66;95443.78;4970731;28;20847;-70
2022/05/16 01:07:43;;;;;;;10.97;8.83;;;;;;;20.83;45.84;95439.72;4969818;28;20442;-72
2022/05/16 01:10:13;;;;;;;9.77;8.77;;;;;;;20.84;45.67;95440.47;4970272;28;20446;-71
2022/05/16 01:12:44;;;;;;;12.10;9.17;;;;;;;20.74;45.55;95441.53;4970388;28;20991;-72
2022/05/16 01:15:25;;;;;;;12.03;9.23;;;;;;;20.58;45.74;95437.69;4970054;28;20817;-72
2022/05/16 01:17:54;;;;;;;10.90;8.90;;;;;;;20.53;45.75;95437.81;4969276;28;21244;-74
2022/05/16 01:20:20;;;;;;;10.07;9.07;;;;;;;20.78;45.50;95431.84;4970051;28;20478;-72
2022/05/16 01:22:52;;;;;;;9.60;8.63;;;;;;;20.86;44.94;95427.63;4970227;28;20504;-74
2022/05/16 01:25:23;;;;;;;9.47;8.27;;;;;;;20.88;44.93;95426.25;4952513;28;20498;-71
2022/05/16 01:27:56;;;;;;;10.33;8.30;;;;;;;20.78;44.96;95437.16;4969754;28;20439;-74
2022/05/16 01:30:27;;;;;;;9.53;8.43;;;;;;;20.72;44.96;95443.72;4969342;28;20445;-71
2022/05/16 01:32:54;;;;;;;12.30;8.87;;;;;;;20.47;45.19;95435.59;4970152;28;20822;-74
2022/05/16 01:35:23;;;;;;;10.63;8.70;;;;;;;20.37;45.51;95433.94;4971832;28;20509;-71
2022/05/16 01:40:37;;;;;;;10.27;9.07;;;;;;;20.60;45.18;95432.06;4974083;28;20450;-69
2022/05/16 01:43:08;;;;;;;10.60;9.20;;;;;;;20.83;45.11;95428.25;4984159;28;20430;-71
2022/05/16 01:45:37;;;;;;;11.03;9.50;;;;;;;20.41;45.77;95426.94;4982201;28;20612;-72
2022/05/16 01:48:05;;;;;;;11.43;9.67;;;;;;;20.44;45.86;95439.63;4973670;28;20447;-72
2022/05/16 01:50:36;;;;;;;11.57;10.17;;;;;;;20.48;45.63;95421.97;4974056;28;20470;-71
2022/05/16 01:53:03;;;;;;;11.57;9.50;;;;;;;20.52;45.60;95428.25;4973043;28;20434;-70
2022/05/16 01:55:30;;;;;;;13.77;9.60;;;;;;;20.54;46.04;95436.72;4972978;28;20536;-70
2022/05/16 01:57:57;;;;;;;12.53;11.23;;;;;;;20.54;45.86;95426.09;4973032;28;20530;-71
2022/05/16 02:00:24;;;;;;;11.57;10.37;;;;;;;20.62;45.57;95433.31;4972361;28;20431;-72
2022/05/16 02:02:51;;;;;;;16.60;12.00;;;;;;;20.41;46.60;95447.44;4972787;28;20526;-71
2022/05/16 02:05:21;;;;;;;19.27;11.67;;;;;;;20.45;46.63;95448.41;4972487;28;20584;-70
2022/05/16 02:07:50;;;;;;;18.77;11.90;;;;;;;20.04;46.82;95429.91;4971490;28;20450;-74
2022/05/16 02:10:21;;;;;;;14.57;11.03;;;;;;;20.46;46.26;95450.75;4973261;28;20871;-72
2022/05/16 02:12:49;;;;;;;15.53;11.53;;;;;;;20.40;46.12;95445.88;4973046;28;20813;-71
2022/05/16 02:15:22;;;;;;;12.53;11.33;;;;;;;20.28;46.64;95453.59;4972570;28;20446;-70
2022/05/16 02:17:49;;;;;;;12.73;11.33;;;;;;;20.30;46.23;95438.91;4972606;28;20450;-72
2022/05/16 02:20:17;;;;;;;12.30;10.73;;;;;;;20.50;45.92;95441.09;4972264;28;20462;-71
2022/05/16 02:25:32;;;;;;;13.10;10.97;;;;;;;20.37;46.13;95447.25;4972331;28;20493;-73
2022/05/16 02:27:59;;;;;;;15.60;11.20;;;;;;;20.28;46.52;95448.28;4972708;28;20450;-72
2022/05/16 02:30:26;;;;;;;17.20;11.03;;;;;;;20.27;45.96;95444.84;4972070;28;20435;-71
2022/05/16 02:32:53;;;;;;;13.93;10.60;;;;;;;19.58;47.76;95435.47;4972303;28;20446;-72
2022/05/16 02:35:20;;;;;;;13.50;11.50;;;;;;;19.88;47.25;95449.97;4972012;28;20473;-71
2022/05/16 02:37:48;;;;;;;15.33;10.77;;;;;;;19.89;47.24;95448.91;4972726;28;20431;-72
2022/05/16 02:40:15;;;;;;;16.13;10.83;;;;;;;20.06;46.66;95446.38;4972121;28;20865;-72
2022/05/16 02:42:41;;;;;;;11.97;10.47;;;;;;;20.04;46.87;95453.84;4972606;28;21003;-71
2022/05/16 02:45:09;;;;;;;15.87;10.90;;;;;;;20.10;46.63;95447.34;4972476;28;20509;-71
2022/05/16 02:47:37;;;;;;;13.30;10.47;;;;;;;20.33;46.18;95451.59;4971774;28;20439;-72
2022/05/16 02:50:04;;;;;;;12.80;10.40;;;;;;;20.18;45.98;95438.69;4972188;28;20545;-73
2022/05/16 02:52:31;;;;;;;15.87;11.07;;;;;;;20.14;46.26;95441.09;4972381;28;20481;-72
2022/05/16 02:55:02;;;;;;;11.90;10.17;;;;;;;20.12;46.24;95445.19;4972344;28;20508;-70
2022/05/16 02:57:29;;;;;;;15.53;11.07;;;;;;;20.01;46.40;95449.16;4955837;28;20437;-70
2022/05/16 02:59:56;;;;;;;16.83;10.67;;;;;;;20.17;46.23;95445.88;4972640;28;20501;-70
2022/05/16 03:02:25;;;;;;;14.93;11.43;;;;;;;20.06;46.70;95446.38;4973544;28;20578;-71
2022/05/16 03:04:53;;;;;;;14.50;10.60;;;;;;;19.82;46.37;95419.25;4975932;28;20490;-69
2022/05/16 03:07:19;;;;;;;13.93;10.77;;;;;;;19.98;46.41;95450.53;4974343;28;20458;-70
2022/05/16 03:09:49;;;;;;;16.37;8.80;;;;;;;19.66;46.37;95449.91;4973893;28;20497;-72
2022/05/16 03:12:16;;;;;;;12.50;9.67;;;;;;;19.67;46.48;95459.50;4971643;28;20885;-71
2022/05/16 03:14:43;;;;;;;13.03;9.23;;;;;;;19.37;46.53;95452.13;4971450;28;20497;-71
2022/05/16 03:17:10;;;;;;;8.83;8.10;;;;;;;19.75;45.98;95454.25;4972154;28;20919;-73
2022/05/16 03:19:37;;;;;;;8.93;7.73;;;;;;;19.80;45.21;95456.00;4975457;28;20953;-71
2022/05/16 03:22:05;;;;;;;9.70;7.30;;;;;;;19.82;45.33;95456.47;4977222;28;20455;-71
2022/05/16 03:24:34;;;;;;;8.63;7.73;;;;;;;19.43;46.31;95442.97;4979144;28;20513;-71
2022/05/16 03:27:01;;;;;;;9.80;8.43;;;;;;;19.30;47.54;95455.16;4978962;28;20435;-72
2022/05/16 03:29:28;;;;;;;9.33;8.13;;;;;;;19.15;48.91;95455.44;4977862;28;20455;-73
2022/05/16 03:31:55;;;;;;;9.23;7.87;;;;;;;19.45;47.82;95462.06;4977638;28;20817;-71
2022/05/16 03:34:22;;;;;;;9.47;8.57;;;;;;;19.75;46.77;95467.53;4977710;28;20443;-71
2022/05/16 03:36:49;;;;;;;11.20;7.93;;;;;;;19.95;46.11;95467.09;4976652;28;20443;-72
2022/05/16 03:42:07;;;;;;;12.53;10.53;;;;;;;19.43;47.61;95470.34;4978308;28;20439;-72
2022/05/16 03:44:34;;;;;;;14.50;11.10;;;;;;;19.06;48.78;95475.81;4974628;28;20486;-69
2022/05/16 03:47:01;;;;;;;12.57;10.93;;;;;;;18.89;49.53;95481.69;4971718;28;20516;-70
2022/05/16 03:49:30;;;;;;;17.03;11.67;;;;;;;19.50;48.12;95480.56;4971301;28;20542;-70
2022/05/16 03:51:59;;;;;;;16.10;11.93;;;;;;;19.50;48.42;95493.84;4971378;28;20446;-70
2022/05/16 03:54:26;;;;;;;17.83;12.73;;;;;;;19.73;48.45;95490.19;4969344;28;20449;-71
2022/05/16 03:56:53;;;;;;;19.30;13.67;;;;;;;19.66;48.53;95497.78;4971147;28;20446;-72
2022/05/16 03:59:20;;;;;;;18.00;15.90;;;;;;;19.58;48.70;95499.25;4968697;28;20447;-73
2022/05/16 04:01:49;;;;;;;20.90;13.80;;;;;;;19.67;48.59;95502.78;4969011;28;20497;-74
2022/05/16 04:04:16;;;;;;;22.03;16.47;;;;;;;19.79;48.08;95494.31;4970736;28;20916;-73
2022/05/16 04:06:45;;;;;;;19.03;16.03;;;;;;;19.93;48.06;95489.75;4971185;28;20497;-74
2022/05/16 04:09:12;;;;;;;18.40;16.17;;;;;;;20.01;47.87;95507.69;4970627;28;20541;-73
2022/05/16 04:11:39;;;;;;;21.33;16.17;;;;;;;19.96;48.52;95505.91;4969446;28;20586;-74
2022/05/16 04:14:05;;;;;;;19.63;16.53;;;;;;;19.93;48.97;95506.50;4971875;28;20522;-73
2022/05/16 04:16:33;;;;;;;19.40;17.07;;;;;;;19.62;49.87;95513.53;4970503;28;20826;-71
2022/05/16 04:19:00;;;;;;;22.57;17.07;;;;;;;19.72;49.54;95520.53;4970126;28;20438;-72
2022/05/16 04:21:27;;;;;;;25.63;17.50;;;;;;;19.66;49.59;95508.41;4970662;28;20549;-75
2022/05/16 04:23:54;;;;;;;23.77;16.90;;;;;;;19.29;50.13;95521.91;4970940;28;21026;-76
2022/05/16 04:26:21;;;;;;;18.53;16.07;;;;;;;19.34;49.72;95519.16;4970319;28;20491;-74
2022/05/16 04:28:47;;;;;;;25.40;14.57;;;;;;;19.71;48.72;95516.28;4971323;28;20442;-74
2022/05/16 04:31:15;;;;;;;19.27;14.97;;;;;;;19.65;48.96;95520.16;4971448;28;20478;-74
2022/05/16 04:33:41;;;;;;;20.03;15.47;;;;;;;19.99;48.65;95515.16;4970426;28;20501;-73
2022/05/16 04:36:10;;;;;;;19.00;13.90;;;;;;;19.93;48.92;95516.34;4970244;28;20445;-72
2022/05/16 04:38:37;;;;;;;17.73;12.37;;;;;;;19.87;47.72;95515.66;4969676;28;20969;-73
2022/05/16 04:43:50;;;;;;;13.77;12.37;;;;;;;19.39;49.16;95527.03;4970571;28;20458;-73
2022/05/16 04:46:17;;;;;;;50.73;32.13;;;;;;;19.65;48.47;95526.22;4968731;28;20552;-73
2022/05/16 04:48:44;;;;;;;99.73;86.90;;;;;;;19.57;48.77;95528.81;4969734;28;20857;-72
2022/05/16 04:51:11;;;;;;;26.77;23.87;;;;;;;19.80;48.09;95527.78;4970183;28;20822;-72
2022/05/16 04:53:39;;;;;;;18.03;11.37;;;;;;;19.71;48.50;95529.56;4970744;28;20477;-68
2022/05/16 04:56:06;;;;;;;21.40;18.70;;;;;;;19.74;49.19;95534.31;4970863;28;20438;-71
2022/05/16 04:58:33;;;;;;;219.63;193.50;;;;;;;20.34;48.00;95533.06;4970941;28;20459;-70
2022/05/16 05:01:04;;;;;;;32.47;21.07;;;;;;;20.15;48.70;95527.06;4975359;28;20509;-72
2022/05/16 05:03:31;;;;;;;14.93;12.73;;;;;;;20.40;47.92;95537.16;4976161;28;20508;-71
2022/05/16 05:05:58;;;;;;;13.50;12.20;;;;;;;20.27;48.32;95527.34;4972557;28;20485;-71
2022/05/16 05:08:25;;;;;;;14.57;12.93;;;;;;;20.20;48.55;95532.28;4971617;28;20447;-71
2022/05/16 05:16:24;;;;;;;20.57;14.13;;;;;;;20.42;48.58;95539.53;4956450;28;20449;-70
2022/05/16 05:18:51;;;;;;;18.40;15.07;;;;;;;19.99;50.06;95529.25;4974017;28;20474;-77
2022/05/16 05:21:18;;;;;;;16.77;14.80;;;;;;;19.96;50.10;95526.41;4973834;28;21016;-77
2022/05/16 05:23:46;;;;;;;16.40;14.70;;;;;;;20.65;48.02;95539.25;4973057;28;20423;-77
2022/05/16 05:26:13;;;;;;;17.43;14.30;;;;;;;20.82;47.99;95549.22;4974011;28;20487;-79
2022/05/16 05:28:41;;;;;;;19.10;14.57;;;;;;;20.42;49.46;95561.59;4976241;28;20457;-76
2022/05/16 05:31:18;;;;;;;21.77;15.93;;;;;;;20.23;48.27;95526.38;4977885;28;20434;-75
2022/05/16 05:33:45;;;;;;;22.20;15.17;;;;;;;20.57;48.27;95555.94;4967506;28;20534;-76
2022/05/16 05:36:12;;;;;;;19.57;15.50;;;;;;;20.27;49.66;95545.19;4981900;28;20450;-76
2022/05/16 05:38:39;;;;;;;19.37;14.33;;;;;;;20.74;48.38;95547.28;4974177;28;20537;-77
2022/05/16 05:41:08;;;;;;;21.87;15.47;;;;;;;21.25;46.94;95542.28;4974134;28;20501;-75
2022/05/16 05:43:36;;;;;;;18.97;17.07;;;;;;;20.73;48.53;95557.16;4973648;28;20521;-75
2022/05/16 05:46:04;;;;;;;23.13;16.30;;;;;;;20.85;48.07;95554.75;4974112;28;20489;-77
2022/05/16 05:48:31;;;;;;;22.30;16.67;;;;;;;20.54;48.71;95543.22;4973590;28;20451;-75
2022/05/16 05:50:58;;;;;;;22.80;16.67;;;;;;;21.14;47.68;95555.09;4973850;28;20447;-76
2022/05/16 05:53:25;;;;;;;32.93;17.17;;;;;;;21.19;46.80;95543.50;4973939;28;20863;-77
2022/05/16 05:55:53;;;;;;;20.37;15.97;;;;;;;21.13;47.16;95556.19;4973518;28;20949;-78
2022/05/16 05:58:21;;;;;;;27.33;17.20;;;;;;;21.34;47.11;95561.78;4974025;28;20450;-76
2022/05/16 06:00:48;;;;;;;25.70;17.17;;;;;;;21.55;46.83;95551.38;4955777;28;20458;-75
2022/05/16 06:03:15;;;;;;;20.70;15.80;;;;;;;21.60;47.10;95548.56;4956380;28;20451;-78
2022/05/16 06:05:44;;;;;;;20.33;15.60;;;;;;;21.66;47.19;95547.34;4973257;28;20474;-76
2022/05/16 06:08:12;;;;;;;25.13;15.97;;;;;;;21.47;46.90;95552.91;4973242;28;20489;-75
2022/05/16 06:10:39;;;;;;;25.10;16.10;;;;;;;21.14;48.86;95557.78;4973055;28;20446;-75
2022/05/16 06:13:06;;;;;;;17.43;15.33;;;;;;;21.11;47.97;95531.72;4972901;28;20461;-75
2022/05/16 06:15:33;;;;;;;17.70;15.80;;;;;;;21.54;47.17;95544.44;4972970;28;20446;-77
2022/05/16 06:18:00;;;;;;;22.00;15.07;;;;;;;21.41;48.04;95553.34;4973064;28;20446;-75
2022/05/16 06:20:27;;;;;;;18.80;14.27;;;;;;;21.96;45.71;95541.16;4972607;28;20521;-77
2022/05/16 06:22:54;;;;;;;16.30;12.37;;;;;;;22.06;45.98;95538.97;4972435;28;20474;-76
2022/05/16 06:25:34;;;;;;;20.90;13.43;;;;;;;22.70;44.35;95544.56;4972957;28;21071;-77
2022/05/16 06:28:08;;;;;;;27.73;14.00;;;;;;;22.52;44.82;95533.03;4955531;28;20446;-76
2022/05/16 06:30:37;;;;;;;15.77;13.43;;;;;;;22.41;45.40;95545.13;4972896;28;21008;-80
2022/05/16 06:33:05;;;;;;;17.67;13.20;;;;;;;22.52;44.97;95548.28;4974183;28;20438;-76
2022/05/16 06:35:34;;;;;;;23.77;11.90;;;;;;;22.47;44.91;95551.91;4980480;28;20450;-78
2022/05/16 06:38:10;;;;;;;18.13;12.43;;;;;;;22.44;44.93;95547.19;4983738;28;20485;-77
2022/05/16 06:40:41;;;;;;;18.03;12.20;;;;;;;22.07;44.42;95561.13;4972669;28;20446;-76
2022/05/16 06:43:13;;;;;;;18.30;12.27;;;;;;;22.29;44.17;95534.31;4972779;28;20450;-80
2022/05/16 06:45:45;;;;;;;16.67;11.77;;;;;;;22.28;43.50;95543.41;4956072;28;20234;-75
2022/05/16 06:48:12;;;;;;;17.57;13.47;;;;;;;22.14;44.78;95554.22;4972669;28;20252;-77
2022/05/16 06:50:41;;;;;;;21.43;12.80;;;;;;;22.73;45.02;95550.06;4972015;28;20466;-77
2022/05/16 06:53:13;;;;;;;19.23;13.03;;;;;;;22.96;44.09;95548.75;4972011;28;20443;-76
2022/05/16 06:55:40;;;;;;;15.27;12.30;;;;;;;23.07;43.70;95539.31;4972115;28;20995;-77
2022/05/16 06:58:07;;;;;;;15.60;12.07;;;;;;;22.68;45.25;95539.50;4972069;28;20199;-75
2022/05/16 07:00:35;;;;;;;18.40;13.00;;;;;;;22.57;44.67;95526.81;4972328;28;20180;-76
2022/05/16 07:03:03;;;;;;;17.10;13.23;;;;;;;22.57;44.13;95529.47;4972344;28;20195;-75
2022/05/16 07:05:48;;;;;;;18.27;14.00;;;;;;;23.30;41.89;95544.47;4972130;28;20648;-76
2022/05/16 07:08:16;;;;;;;17.33;13.33;;;;;;;23.31;42.76;95532.66;4972387;28;20207;-75
2022/05/16 07:10:43;;;;;;;22.47;12.80;;;;;;;23.77;42.09;95524.59;4972171;28;20571;-77
2022/05/16 07:13:10;;;;;;;22.97;13.27;;;;;;;23.70;42.86;95535.03;4972434;28;20211;-76
2022/05/16 07:15:37;;;;;;;24.97;13.70;;;;;;;23.79;43.00;95533.09;4972260;28;20666;-77
2022/05/16 07:18:04;;;;;;;16.73;13.07;;;;;;;23.95;41.38;95531.44;4971759;28;20733;-75
2022/05/16 07:20:37;;;;;;;20.60;14.47;;;;;;;24.14;40.67;95534.50;4971215;28;20223;-77
2022/05/16 07:23:05;;;;;;;18.80;13.37;;;;;;;24.09;40.83;95534.66;4971400;28;20195;-77
2022/05/16 07:27:56;;;;;;;19.10;13.70;;;;;;;24.00;41.25;95528.56;4971683;28;20243;-78
2022/05/16 07:28:20;;;;;;;23.37;13.03;;;;;;;24.06;41.37;95529.97;4971987;28;20215;-75
2022/05/16 07:30:47;;;;;;;33.53;14.63;;;;;;;24.08;41.65;95527.75;4971777;28;20191;-77
2022/05/16 07:33:15;;;;;;;20.30;13.70;;;;;;;23.85;40.08;95521.06;4971237;28;20297;-74
2022/05/16 07:35:42;;;;;;;18.67;12.93;;;;;;;24.41;40.06;95517.91;4971241;28;20191;-75
2022/05/16 07:38:08;;;;;;;18.23;12.77;;;;;;;24.54;39.41;95516.06;4971500;28;20653;-76
2022/05/16 07:40:37;;;;;;;21.90;13.57;;;;;;;24.52;38.20;95524.44;4971307;28;20635;-77
2022/05/16 07:43:05;;;;;;;19.70;12.67;;;;;;;24.56;38.26;95517.31;4971692;28;20262;-76
2022/05/16 07:45:33;;;;;;;22.13;13.43;;;;;;;24.48;41.09;95518.16;4971267;28;20219;-77
2022/05/16 07:48:03;;;;;;;25.17;14.67;;;;;;;24.52;41.29;95519.09;4971124;28;20620;-76
2022/05/16 07:50:32;;;;;;;21.43;14.93;;;;;;;24.39;39.83;95509.41;4971114;28;20713;-76
2022/05/16 07:52:59;;;;;;;32.23;15.73;;;;;;;24.09;40.86;95516.72;4953561;28;20191;-75
2022/05/16 07:55:26;;;;;;;17.10;13.10;;;;;;;24.86;38.55;95513.44;4971299;28;20311;-77
2022/05/16 07:57:53;;;;;;;17.50;12.43;;;;;;;25.46;37.83;95512.03;4971087;28;20278;-75
2022/05/16 08:00:22;;;;;;;21.40;11.93;;;;;;;25.39;36.62;95511.78;4969352;28;20289;-74
2022/05/16 08:02:51;;;;;;;16.93;11.23;;;;;;;25.02;35.77;95511.69;4970144;28;20191;-75
2022/05/16 08:05:19;;;;;;;17.13;11.60;;;;;;;25.32;36.80;95511.53;4971026;28;20254;-76
2022/05/16 08:10:35;;;;;;;14.43;10.40;;;;;;;25.75;35.57;95507.22;4970996;28;20191;-76
2022/05/16 08:13:06;;;;;;;20.57;10.53;;;;;;;25.35;36.59;95505.50;4970802;28;20195;-76
2022/05/16 08:15:34;;;;;;;22.27;10.10;;;;;;;25.60;36.69;95505.22;4971074;28;20322;-76
2022/05/16 08:18:02;;;;;;;15.43;9.97;;;;;;;26.29;34.76;95504.28;4970866;28;20210;-75
2022/05/16 08:20:29;;;;;;;14.77;7.00;;;;;;;25.81;33.17;95505.09;4970621;28;20318;-75
2022/05/16 08:22:57;;;;;;;12.53;7.40;;;;;;;25.13;32.07;95500.56;4970886;28;20670;-76
2022/05/16 08:25:25;;;;;;;13.83;7.17;;;;;;;25.65;31.72;95496.97;4970783;28;20238;-76
2022/05/16 08:27:52;;;;;;;21.37;7.60;;;;;;;25.89;33.72;95501.53;4953125;28;20677;-76
2022/05/16 08:30:20;;;;;;;24.43;8.93;;;;;;;26.04;34.64;95498.16;4969750;28;20203;-75
2022/05/16 08:32:48;;;;;;;12.60;6.57;;;;;;;25.89;31.88;95498.84;4953348;28;20226;-76
2022/05/16 08:35:16;;;;;;;13.90;6.27;;;;;;;26.19;31.61;95502.84;4951771;28;20195;-75
2022/05/16 08:40:43;;;;;;;8.90;6.33;;;;;;;26.71;30.31;95489.41;4969318;28;20231;-75
2022/05/16 08:43:35;;;;;;;8.80;5.53;;;;;;;26.55;29.51;95489.31;4970697;28;20215;-76
2022/05/16 08:46:08;;;;;;;8.00;5.00;;;;;;;26.48;30.01;95481.03;4973771;28;20225;-75
2022/05/16 08:48:39;;;;;;;8.53;5.07;;;;;;;26.74;29.24;95472.56;4974748;28;20190;-77
2022/05/16 08:51:18;;;;;;;11.40;4.47;;;;;;;26.61;26.69;95485.25;4974552;28;20282;-75
2022/05/16 08:54:10;;;;;;;6.40;3.90;;;;;;;26.49;26.83;95481.84;4974701;28;20191;-77
2022/05/16 08:56:42;;;;;;;9.23;3.97;;;;;;;27.38;28.30;95475.03;4975008;28;20223;-77
2022/05/16 08:59:16;;;;;;;5.70;3.50;;;;;;;26.81;25.20;95462.78;4975063;28;20587;-76
2022/05/16 09:01:54;;;;;;;5.93;3.57;;;;;;;27.34;27.49;95468.75;4974485;28;20301;-77
2022/05/16 09:04:30;;;;;;;6.80;4.00;;;;;;;27.46;28.54;95471.38;4974430;28;20281;-76
2022/05/16 09:07:14;;;;;;;7.67;4.23;;;;;;;27.25;25.80;95466.22;4973921;28;20273;-75
2022/05/16 09:09:52;;;;;;;7.10;3.70;;;;;;;27.44;26.48;95469.03;4974105;28;20583;-76
2022/05/16 09:12:50;;;;;;;11.83;3.50;;;;;;;27.18;25.49;95468.75;4973874;28;20199;-76
2022/05/16 09:15:38;;;;;;;8.50;3.40;;;;;;;27.56;25.29;95470.84;4973337;28;20209;-76
2022/05/16 09:18:24;;;;;;;21.13;3.27;;;;;;;27.88;23.87;95461.59;4958289;28;20188;-75
2022/05/16 09:21:00;;;;;;;10.13;3.73;;;;;;;27.77;25.20;95464.03;4973935;28;20702;-77
2022/05/16 09:23:47;;;;;;;7.07;3.20;;;;;;;27.77;24.68;95460.59;4973902;28;20375;-74
2022/05/16 09:26:43;;;;;;;6.93;3.43;;;;;;;28.11;23.42;95459.03;4973640;28;20281;-75
2022/05/16 09:29:20;;;;;;;9.40;3.03;;;;;;;28.05;22.47;95458.53;4973912;28;20283;-75
2022/05/16 09:31:49;;;;;;;3.97;2.60;;;;;;;28.25;23.13;95443.94;4974125;28;20190;-76
2022/05/16 09:34:22;;;;;;;5.00;2.57;;;;;;;27.76;20.52;95435.56;4973673;28;20266;-77
2022/05/16 09:36:49;;;;;;;4.93;2.37;;;;;;;27.85;22.41;95436.16;4956568;28;20203;-76
2022/05/16 09:39:38;;;;;;;8.67;3.20;;;;;;;28.46;22.60;95444.41;4973785;28;20206;-75
2022/05/16 09:42:13;;;;;;;4.70;2.80;;;;;;;28.32;22.24;95446.78;4973785;28;20203;-74
2022/05/16 09:44:54;;;;;;;7.13;3.10;;;;;;;27.97;22.21;95437.97;4973730;28;20202;-76
2022/05/16 09:47:34;;;;;;;7.20;2.70;;;;;;;27.85;22.78;95446.13;4973462;28;20708;-77
2022/05/16 09:50:27;;;;;;;9.83;2.77;;;;;;;28.05;22.83;95434.28;4955959;28;20199;-76
2022/05/16 09:53:09;;;;;;;6.60;3.17;;;;;;;28.09;24.14;95431.66;4973929;28;20265;-77
2022/05/16 09:55:54;;;;;;;12.63;3.30;;;;;;;28.34;22.77;95430.28;4980523;28;20202;-75
2022/05/16 09:58:33;;;;;;;15.07;2.87;;;;;;;28.63;22.51;95422.41;4963762;28;20242;-75
2022/05/16 10:01:03;;;;;;;8.23;2.60;;;;;;;28.56;22.19;95419.56;4973516;28;20231;-75
2022/05/16 10:03:32;;;;;;;7.33;2.63;;;;;;;28.79;21.64;95417.72;4973023;28;20708;-75
2022/05/16 10:06:31;;;;;;;6.37;2.50;;;;;;;29.19;21.41;95421.88;4973311;28;20218;-77
2022/05/16 10:09:05;;;;;;;5.33;2.50;;;;;;;29.38;21.83;95409.06;4968858;28;20207;-75
2022/05/16 10:11:33;;;;;;;6.90;2.67;;;;;;;29.15;22.07;95412.94;4972782;28;20206;-76
2022/05/16 10:14:00;;;;;;;7.57;2.67;;;;;;;29.22;20.80;95378.75;4973047;28;20183;-75
2022/05/16 10:16:29;;;;;;;9.37;2.40;;;;;;;29.19;20.75;95395.69;4972904;28;20689;-76
2022/05/16 10:19:07;;;;;;;3.57;2.10;;;;;;;29.18;21.18;95398.75;4972525;28;20230;-76
2022/05/16 10:21:41;;;;;;;6.97;2.20;;;;;;;29.46;22.45;95388.38;4955251;28;20297;-77
2022/05/16 10:24:13;;;;;;;4.43;2.80;;;;;;;29.43;20.56;95394.50;4972934;28;20209;-75
2022/05/16 10:26:48;;;;;;;4.70;2.47;;;;;;;29.67;21.02;95394.84;4972670;28;20318;-76
2022/05/16 10:29:31;;;;;;;5.30;2.20;;;;;;;29.67;21.61;95394.84;4972387;28;20253;-76
2022/05/16 10:34:57;;;;;;;5.37;2.67;;;;;;;29.55;20.00;95364.59;4972314;28;20206;-74
2022/05/16 10:37:26;;;;;;;5.23;2.37;;;;;;;30.05;20.69;95374.97;4972355;28;20229;-76
2022/05/16 10:40:27;;;;;;;5.83;2.43;;;;;;;29.05;19.58;95359.56;4972025;28;20202;-76
2022/05/16 10:43:15;;;;;;;4.40;2.23;;;;;;;28.94;19.85;95370.94;4972408;28;20195;-76
2022/05/16 10:45:47;;;;;;;3.67;2.10;;;;;;;28.69;19.78;95367.03;4972502;28;20191;-77
2022/05/16 10:48:27;;;;;;;5.43;2.00;;;;;;;29.55;19.74;95367.28;4972668;28;20191;-75
2022/05/16 10:51:03;;;;;;;2.87;1.83;;;;;;;29.80;20.15;95336.78;4972175;28;20226;-75
2022/05/16 10:53:37;;;;;;;5.33;2.30;;;;;;;29.92;19.54;95347.38;4954768;28;20209;-75
2022/05/16 10:56:32;;;;;;;3.07;2.13;;;;;;;29.88;20.46;95356.59;4971720;28;20199;-74
2022/05/16 10:59:20;;;;;;;9.13;2.33;;;;;;;29.56;18.44;95358.06;4971810;28;20210;-75
2022/05/16 11:02:11;;;;;;;8.20;2.40;;;;;;;29.02;19.52;95360.25;4972034;28;20696;-77
2022/05/16 11:05:00;;;;;;;4.00;2.30;;;;;;;29.87;19.57;95352.34;4971872;28;20207;-76
2022/05/16 11:07:33;;;;;;;5.43;2.37;;;;;;;30.06;19.79;95345.97;4971593;28;20223;-76
2022/05/16 11:10:21;;;;;;;3.30;1.87;;;;;;;29.32;19.09;95345.75;4971232;28;20743;-75
2022/05/16 11:13:05;;;;;;;7.73;2.27;;;;;;;28.61;20.14;95322.19;4972445;28;20234;-75
2022/05/16 11:15:41;;;;;;;4.43;2.00;;;;;;;29.67;19.54;95345.47;4971572;28;20187;-76
2022/05/16 11:18:20;;;;;;;12.43;3.03;;;;;;;29.69;20.10;95346.69;4971873;28;20203;-77
2022/05/16 11:21:35;;;;;;;8.83;2.40;;;;;;;29.78;20.14;95338.31;4954032;28;20615;-76
2022/05/16 11:24:16;;;;;;;18.53;3.13;;;;;;;30.12;19.23;95348.00;4926567;28;20607;-75
2022/05/16 11:27:13;;;;;;;6.80;2.33;;;;;;;29.97;18.85;95327.34;4971738;28;20223;-76
2022/05/16 11:30:05;;;;;;;7.67;2.50;;;;;;;30.34;20.44;95330.91;4954047;28;20214;-76
2022/05/16 11:32:49;;;;;;;8.67;2.03;;;;;;;30.28;18.67;95343.19;4971645;28;20210;-73
2022/05/16 11:35:25;;;;;;;6.47;2.30;;;;;;;30.09;19.37;95329.81;4971219;28;20351;-75
2022/05/16 11:38:11;;;;;;;3.60;2.17;;;;;;;29.55;19.44;95329.47;4971503;28;20206;-76
2022/05/16 11:40:44;;;;;;;5.10;2.30;;;;;;;30.16;19.69;95329.91;4971308;28;20203;-75
2022/05/16 11:43:21;;;;;;;5.57;2.37;;;;;;;30.24;19.24;95326.13;4971550;28;20199;-74
2022/05/16 11:46:18;;;;;;;3.73;2.00;;;;;;;30.54;19.94;95310.66;4970905;28;20657;-75
2022/05/16 11:49:00;;;;;;;7.87;2.23;;;;;;;30.34;19.36;95320.09;4970959;28;20207;-77
2022/05/16 11:52:03;;;;;;;3.43;1.80;;;;;;;30.40;18.74;95283.44;4971054;28;20198;-77
2022/05/16 11:54:37;;;;;;;5.63;1.87;;;;;;;30.54;19.29;95294.41;4971048;28;20203;-75
2022/05/16 12:03:15;;;;;;;3.47;1.70;;;;;;;30.76;18.34;95296.16;4970852;28;20218;-75
2022/05/16 12:05:53;;;;;;;3.77;2.03;;;;;;;31.51;18.32;95289.38;4970809;28;20211;-75
2022/05/16 12:08:25;;;;;;;3.27;1.70;;;;;;;31.45;19.15;95290.91;4970703;28;20226;-75
2022/05/16 12:10:57;;;;;;;5.20;2.13;;;;;;;31.30;19.31;95278.38;4970659;28;20209;-74
2022/05/16 12:13:27;;;;;;;6.93;2.23;;;;;;;31.71;18.48;95279.81;4971118;28;20210;-75
2022/05/16 12:16:16;;;;;;;3.83;1.90;;;;;;;30.83;18.20;95277.31;4970695;28;20214;-74
2022/05/16 12:18:47;;;;;;;4.40;1.90;;;;;;;30.89;18.29;95275.78;4970478;28;20269;-75
2022/05/16 12:21:21;;;;;;;8.30;2.33;;;;;;;30.88;18.47;95273.47;4970005;28;20227;-75